Betancuria — EAMH — position and weather

sailwx.info

Track history (hours):
 
Tides and Currents Weather Stations Pressure Air Temp Water Temp Dewpoint Dewpoint Depression Visibility Wind Speed Wind Dir Waves Ship Positions

Betancuria

Last reported at 2017-Jun-23 03:30 UTC. Time now 2017-Jun-23 03:32 UTC.
Position N 51°22' E 002°30'.

Length 141 m; draft 4.7 m.

Type: Ship. MMSI: 224471000.

Date/timePositionNaut miles runAvg speedWind from/ knotsBaromVisibWave heightAir tempDewpointWater temp
2017-Jun-23 03:30N 51°22' E 002°30'3 6.4
2017-Jun-23 03:01N 51°21' E 002°25'3 6.5
2017-Jun-23 02:30N 51°19' E 002°21'4 7.6
2017-Jun-23 02:01N 51°17' E 002°16'4 8.1
2017-Jun-23 01:31N 51°14' E 002°10'4 8.1
2017-Jun-23 01:00N 51°12' E 002°05'4 8.5
2017-Jun-23 00:30N 51°11' E 001°59'4 8.8
2017-Jun-23 00:01N 51°09' E 001°52'5 9.1
2017-Jun-22 23:31N 51°06' E 001°46'5 9.7
2017-Jun-22 23:01N 51°02' E 001°41'5 9.9
2017-Jun-22 22:30N 50°59' E 001°36'510.1
2017-Jun-22 22:01N 50°55' E 001°30'510.6
2017-Jun-22 21:30N 50°50' E 001°27'5 9.9
2017-Jun-22 20:58N 50°45' E 001°24'55 9.5
2017-Jun-22 15:12N 50°19' E 000°08'2 9.4
2017-Jun-22 14:56N 50°19' E 000°05'8 8.9
2017-Jun-22 14:00N 50°11' W 000°00'5 9.5
2017-Jun-22 13:30N 50°06' W 000°02'5 9.4
2017-Jun-22 13:01N 50°02' W 000°04'5 9.6
2017-Jun-22 12:30N 49°57' W 000°05'5 9.7
2017-Jun-22 12:01N 49°52' W 000°07'5 9.6
2017-Jun-22 11:30N 49°48' W 000°09'510.1
2017-Jun-22 11:01N 49°43' W 000°10'510.4
2017-Jun-22 10:31N 49°37' W 000°11'510.4
2017-Jun-22 10:00N 49°32' W 000°12'4 8.7
2017-Jun-22 09:31N 49°29' W 000°07'0 0.5
2017-Jun-22 08:58N 49°29' W 000°07'0 0.0
2017-Jun-22 08:28N 49°29' W 000°07'0 0.0
2017-Jun-22 07:58N 49°29' W 000°07'0 0.0
2017-Jun-22 07:28N 49°29' W 000°07'0 0.0
2017-Jun-22 06:58N 49°29' W 000°07'0 0.0
2017-Jun-22 06:28N 49°29' W 000°07'0 0.0
2017-Jun-22 05:58N 49°29' W 000°07'0 0.1
2017-Jun-22 05:28N 49°29' W 000°07'0 0.0
2017-Jun-22 04:58N 49°29' W 000°07'0 0.1
2017-Jun-22 04:28N 49°29' W 000°07'0 0.1
2017-Jun-22 03:58N 49°29' W 000°07'0 0.1
2017-Jun-22 03:28N 49°29' W 000°07'0 0.0
2017-Jun-22 02:58N 49°29' W 000°07'0 0.1
2017-Jun-22 02:28N 49°29' W 000°07'0 0.0
2017-Jun-22 01:58N 49°29' W 000°07'0 0.0
2017-Jun-22 01:28N 49°29' W 000°07'0 0.0
2017-Jun-22 00:58N 49°29' W 000°07'0 0.0
2017-Jun-22 00:28N 49°29' W 000°07'0 0.0
2017-Jun-21 23:58N 49°29' W 000°07'0 0.0
2017-Jun-21 23:28N 49°29' W 000°07'0 0.0
2017-Jun-21 22:58N 49°29' W 000°07'0 0.0
2017-Jun-21 22:28N 49°29' W 000°07'0 0.1
2017-Jun-21 21:58N 49°29' W 000°07'0 0.1
2017-Jun-21 21:28N 49°29' W 000°07'0 0.0
2017-Jun-21 20:58N 49°29' W 000°07'0 0.1
2017-Jun-21 20:28N 49°29' W 000°07'0 0.0
2017-Jun-21 19:58N 49°29' W 000°07'0 0.0
2017-Jun-21 19:28N 49°29' W 000°07'0 0.1
2017-Jun-21 18:58N 49°29' W 000°07'0 0.0
2017-Jun-21 18:28N 49°29' W 000°07'0 0.0
2017-Jun-21 17:58N 49°29' W 000°07'0 0.0
2017-Jun-21 17:28N 49°29' W 000°07'0 0.0
2017-Jun-21 16:58N 49°29' W 000°07'0 0.1
2017-Jun-21 16:28N 49°29' W 000°07'0 0.1
2017-Jun-21 15:58N 49°29' W 000°07'0 0.1
2017-Jun-21 15:28N 49°29' W 000°07'0 0.1
2017-Jun-21 14:58N 49°29' W 000°07'0 0.0
2017-Jun-21 14:28N 49°29' W 000°07'0 0.0
2017-Jun-21 13:28N 49°29' W 000°07'0 0.0
2017-Jun-21 12:58N 49°29' W 000°07'0 0.0
2017-Jun-21 12:28N 49°29' W 000°07'0 0.0
2017-Jun-21 11:58N 49°29' W 000°07'0 0.0
2017-Jun-21 11:28N 49°29' W 000°07'0 0.0
2017-Jun-21 10:58N 49°29' W 000°07'0 0.0
2017-Jun-21 10:28N 49°29' W 000°07'0 0.0
2017-Jun-21 09:58N 49°29' W 000°07'0 0.0
2017-Jun-21 09:28N 49°29' W 000°07'0 0.1
2017-Jun-21 08:58N 49°29' W 000°07'0 0.1
2017-Jun-21 08:22N 49°29' W 000°07'0 0.1
2017-Jun-21 07:58N 49°29' W 000°07'0 0.0
2017-Jun-21 07:28N 49°29' W 000°07'0 0.0
2017-Jun-21 06:55N 49°29' W 000°07'0 0.0
2017-Jun-21 06:28N 49°29' W 000°07'0 0.0
2017-Jun-21 05:58N 49°29' W 000°07'0 0.0
2017-Jun-21 05:28N 49°29' W 000°07'0 0.0
2017-Jun-21 04:58N 49°29' W 000°07'0 0.0
2017-Jun-21 04:28N 49°29' W 000°07'0 0.1
2017-Jun-21 03:58N 49°29' W 000°07'0 0.2
2017-Jun-21 03:28N 49°29' W 000°07'0 0.1
2017-Jun-21 02:58N 49°29' W 000°07'0 0.0
2017-Jun-21 02:28N 49°29' W 000°07'0 0.1
2017-Jun-21 01:58N 49°29' W 000°07'0 0.0
2017-Jun-21 01:28N 49°29' W 000°07'0 0.0
2017-Jun-21 00:58N 49°29' W 000°07'0 0.0
2017-Jun-21 00:28N 49°29' W 000°07'0 0.0
2017-Jun-20 23:58N 49°29' W 000°07'0 0.0
2017-Jun-20 23:28N 49°29' W 000°07'0 0.0
2017-Jun-20 22:58N 49°29' W 000°07'0 0.0
2017-Jun-20 22:28N 49°29' W 000°07'0 0.0
2017-Jun-20 21:58N 49°29' W 000°07'0 0.0
2017-Jun-20 21:28N 49°29' W 000°07'0 0.0
2017-Jun-20 20:58N 49°29' W 000°07'0 0.0
2017-Jun-20 20:28N 49°29' W 000°07'0 0.0
2017-Jun-20 19:58N 49°29' W 000°07'0 0.0
2017-Jun-20 19:28N 49°29' W 000°07'0 0.0
2017-Jun-20 18:58N 49°29' W 000°07'0 0.1
2017-Jun-20 18:28N 49°29' W 000°07'0 0.1
2017-Jun-20 17:58N 49°29' W 000°07'0 0.1
2017-Jun-20 17:28N 49°29' W 000°07'0 0.0
2017-Jun-20 16:58N 49°29' W 000°07'0 0.0
2017-Jun-20 16:28N 49°29' W 000°07'0 0.2
2017-Jun-20 15:58N 49°29' W 000°07'0 0.0
2017-Jun-20 15:25N 49°29' W 000°07'0 0.0
2017-Jun-20 14:58N 49°29' W 000°07'0 0.0
2017-Jun-20 13:58N 49°29' W 000°07'0 0.0
2017-Jun-20 13:28N 49°29' W 000°07'0 0.0
2017-Jun-20 12:58N 49°29' W 000°07'0 0.0
2017-Jun-20 12:28N 49°29' W 000°07'0 0.0
2017-Jun-20 11:58N 49°29' W 000°07'0 0.0
2017-Jun-20 11:28N 49°29' W 000°07'0 0.0
2017-Jun-20 10:58N 49°29' W 000°07'0 0.0
2017-Jun-20 10:28N 49°29' W 000°07'0 0.0
2017-Jun-20 09:58N 49°29' W 000°07'0 0.0
2017-Jun-20 09:28N 49°29' W 000°07'0 0.0
2017-Jun-20 08:58N 49°29' W 000°07'0 0.0
2017-Jun-20 08:28N 49°29' W 000°07'0 0.0
2017-Jun-20 07:58N 49°29' W 000°07'0 0.1
2017-Jun-20 07:28N 49°29' W 000°07'0 0.1
2017-Jun-20 06:58N 49°29' W 000°07'0 0.1
2017-Jun-20 06:28N 49°29' W 000°07'0 0.0
2017-Jun-20 05:58N 49°29' W 000°07'0 0.0
2017-Jun-20 05:28N 49°29' W 000°07'0 0.0
2017-Jun-20 04:58N 49°29' W 000°07'0 0.0
2017-Jun-20 04:28N 49°29' W 000°07'0 0.0
2017-Jun-20 03:58N 49°29' W 000°07'0 0.0
2017-Jun-20 03:28N 49°29' W 000°07'0 0.0
2017-Jun-20 02:58N 49°29' W 000°07'0 0.0
2017-Jun-20 02:28N 49°29' W 000°07'0 0.2
2017-Jun-20 01:58N 49°29' W 000°07'0 0.2
2017-Jun-20 01:28N 49°29' W 000°07'0 0.0
2017-Jun-20 00:58N 49°29' W 000°07'0 0.0
2017-Jun-20 00:28N 49°29' W 000°07'0 0.0
2017-Jun-19 23:58N 49°29' W 000°07'0 0.0
2017-Jun-19 23:28N 49°29' W 000°07'0 0.0
2017-Jun-19 22:58N 49°29' W 000°07'0 0.0
2017-Jun-19 22:28N 49°29' W 000°07'0 0.0
2017-Jun-19 21:58N 49°29' W 000°07'0 0.0
2017-Jun-19 21:28N 49°29' W 000°07'0 0.0
2017-Jun-19 20:58N 49°29' W 000°07'0 0.0
2017-Jun-19 20:28N 49°29' W 000°07'0 0.0
2017-Jun-19 19:58N 49°29' W 000°07'0 0.0
2017-Jun-19 19:28N 49°29' W 000°07'0 0.0
2017-Jun-19 18:58N 49°29' W 000°07'0 0.1
2017-Jun-19 18:28N 49°29' W 000°07'0 0.0
2017-Jun-19 17:58N 49°29' W 000°07'0 0.0
2017-Jun-19 17:28N 49°29' W 000°07'0 0.0
2017-Jun-19 16:58N 49°29' W 000°07'0 0.0
2017-Jun-19 16:28N 49°29' W 000°07'0 0.1
2017-Jun-19 15:58N 49°29' W 000°07'0 0.1
2017-Jun-19 15:28N 49°29' W 000°07'0 0.1
2017-Jun-19 14:58N 49°29' W 000°07'0 0.1
2017-Jun-19 13:58N 49°29' W 000°07'0 0.0
2017-Jun-19 13:28N 49°29' W 000°07'0 0.0
2017-Jun-19 12:58N 49°29' W 000°07'0 0.0
2017-Jun-19 12:28N 49°29' W 000°07'0 0.0
2017-Jun-19 11:58N 49°29' W 000°07'0 0.0
2017-Jun-19 11:28N 49°29' W 000°07'0 0.0
2017-Jun-19 10:58N 49°29' W 000°07'0 0.0
2017-Jun-19 10:28N 49°29' W 000°07'0 0.0
2017-Jun-19 09:58N 49°29' W 000°07'0 0.0
2017-Jun-19 09:28N 49°29' W 000°07'0 0.0
2017-Jun-19 08:58N 49°29' W 000°07'0 0.0
2017-Jun-19 08:28N 49°29' W 000°07'0 0.0
2017-Jun-19 07:58N 49°29' W 000°07'0 0.0
2017-Jun-19 07:28N 49°29' W 000°07'0 0.1
2017-Jun-19 06:58N 49°29' W 000°07'0 0.1
2017-Jun-19 06:28N 49°29' W 000°07'0 0.1
2017-Jun-19 05:58N 49°29' W 000°07'0 0.0
2017-Jun-19 05:28N 49°29' W 000°07'0 0.0
2017-Jun-19 04:58N 49°29' W 000°07'0 0.0
2017-Jun-19 04:28N 49°29' W 000°07'0 0.0
2017-Jun-19 03:58N 49°29' W 000°07'0 0.0
2017-Jun-19 03:28N 49°29' W 000°07'0 0.0
2017-Jun-19 02:58N 49°29' W 000°07'0 0.0
2017-Jun-19 02:28N 49°29' W 000°07'0 0.0
2017-Jun-19 01:58N 49°29' W 000°07'0 0.0
2017-Jun-19 01:28N 49°29' W 000°07'0 0.2
2017-Jun-19 00:58N 49°29' W 000°07'0 0.1
2017-Jun-19 00:28N 49°29' W 000°07'0 0.0
2017-Jun-18 23:58N 49°29' W 000°07'0 0.0
2017-Jun-18 23:28N 49°29' W 000°07'0 0.0
2017-Jun-18 22:58N 49°29' W 000°07'0 0.0
2017-Jun-18 22:28N 49°29' W 000°07'0 0.0
2017-Jun-18 21:58N 49°29' W 000°07'0 0.0
2017-Jun-18 21:28N 49°29' W 000°07'0 0.0
2017-Jun-18 20:58N 49°29' W 000°07'0 0.0
2017-Jun-18 20:28N 49°29' W 000°07'0 0.0
2017-Jun-18 19:58N 49°29' W 000°07'0 0.1
2017-Jun-18 19:28N 49°29' W 000°07'0 0.0
2017-Jun-18 18:58N 49°29' W 000°07'0 0.0
2017-Jun-18 18:28N 49°29' W 000°07'0 0.0
2017-Jun-18 17:58N 49°29' W 000°07'0 0.0
2017-Jun-18 17:28N 49°29' W 000°07'0 0.0
2017-Jun-18 16:58N 49°29' W 000°07'0 0.0
2017-Jun-18 16:28N 49°29' W 000°07'0 0.0
2017-Jun-18 15:58N 49°29' W 000°07'0 0.0
2017-Jun-18 15:28N 49°29' W 000°07'0 0.0
2017-Jun-18 14:58N 49°29' W 000°07'0 0.0
2017-Jun-18 13:58N 49°29' W 000°07'0 0.0
2017-Jun-18 13:28N 49°29' W 000°07'0 0.0
2017-Jun-18 12:58N 49°29' W 000°07'0 0.0
2017-Jun-18 12:28N 49°29' W 000°07'0 0.0
2017-Jun-18 11:58N 49°29' W 000°07'0 0.0
2017-Jun-18 11:28N 49°29' W 000°07'0 0.0
2017-Jun-18 10:58N 49°29' W 000°07'0 0.0
2017-Jun-18 10:28N 49°29' W 000°07'0 0.0
2017-Jun-18 09:58N 49°29' W 000°07'0 0.0
2017-Jun-18 09:25N 49°29' W 000°07'0 0.0
2017-Jun-18 08:58N 49°29' W 000°07'0 0.0
2017-Jun-18 08:28N 49°29' W 000°07'0 0.0
2017-Jun-18 07:59N 49°29' W 000°07'0 0.0
2017-Jun-18 07:29N 49°29' W 000°07'0 0.0
2017-Jun-18 06:59N 49°29' W 000°07'0 0.0
2017-Jun-18 06:29N 49°29' W 000°07'0 0.1
2017-Jun-18 05:59N 49°29' W 000°07'0 0.2
2017-Jun-18 05:29N 49°29' W 000°07'0 0.0
2017-Jun-18 04:59N 49°29' W 000°07'0 0.0
2017-Jun-18 04:29N 49°29' W 000°07'0 0.0
2017-Jun-18 03:59N 49°29' W 000°07'0 0.0
2017-Jun-18 03:29N 49°29' W 000°07'0 0.0
2017-Jun-18 02:59N 49°29' W 000°07'0 0.0
2017-Jun-18 02:29N 49°29' W 000°07'0 0.0
2017-Jun-18 01:59N 49°29' W 000°07'0 0.0
2017-Jun-18 01:29N 49°29' W 000°07'0 0.1
2017-Jun-18 00:59N 49°29' W 000°07'0 0.2
2017-Jun-18 00:29N 49°29' W 000°07'0 0.0
2017-Jun-17 23:59N 49°29' W 000°07'0 0.0
2017-Jun-17 23:29N 49°29' W 000°07'0 0.0
2017-Jun-17 22:59N 49°29' W 000°07'0 0.0
2017-Jun-17 22:29N 49°29' W 000°07'0 0.0
2017-Jun-17 21:59N 49°29' W 000°07'0 0.0
2017-Jun-17 21:29N 49°29' W 000°07'0 0.0
2017-Jun-17 20:59N 49°29' W 000°07'0 0.0
2017-Jun-17 20:29N 49°29' W 000°07'0 0.0
2017-Jun-17 19:59N 49°29' W 000°07'0 0.0
2017-Jun-17 19:29N 49°29' W 000°07'0 0.0
2017-Jun-17 18:59N 49°29' W 000°07'0 0.0
2017-Jun-17 18:29N 49°29' W 000°07'0 0.0
2017-Jun-17 17:59N 49°29' W 000°07'0 0.0
2017-Jun-17 17:29N 49°29' W 000°07'0 0.1
2017-Jun-17 16:59N 49°29' W 000°07'0 0.1
2017-Jun-17 16:29N 49°29' W 000°07'0 0.0
2017-Jun-17 15:59N 49°29' W 000°07'0 0.1
2017-Jun-17 15:29N 49°29' W 000°07'0 0.0
2017-Jun-17 14:59N 49°29' W 000°07'0 0.5
2017-Jun-17 14:30N 49°29' W 000°06'9 9.5
2017-Jun-17 13:30N 49°26' E 000°07'4 8.6
2017-Jun-17 13:00N 49°26' E 000°14'0 0.7
2017-Jun-17 12:30N 49°26' E 000°15'0 0.0
2017-Jun-17 12:01N 49°26' E 000°15'0 0.0
2017-Jun-17 11:30N 49°26' E 000°15'0 0.0
2017-Jun-17 10:58N 49°26' E 000°15'0 0.0
2017-Jun-17 10:28N 49°26' E 000°15'0 0.0
2017-Jun-17 09:59N 49°26' E 000°15'0 0.0
2017-Jun-17 09:28N 49°26' E 000°15'0 0.0
2017-Jun-17 08:58N 49°26' E 000°15'0 0.0
2017-Jun-17 08:28N 49°26' E 000°15'0 0.0
2017-Jun-17 07:58N 49°26' E 000°15'0 0.0
2017-Jun-17 07:28N 49°26' E 000°15'0 0.0
2017-Jun-17 06:58N 49°26' E 000°15'0 0.0
2017-Jun-17 06:28N 49°26' E 000°15'0 0.0
2017-Jun-17 05:58N 49°26' E 000°15'0 0.0
2017-Jun-17 05:28N 49°26' E 000°15'0 0.0
2017-Jun-17 04:58N 49°26' E 000°15'0 0.0
2017-Jun-17 04:28N 49°26' E 000°15'0 0.0
2017-Jun-17 03:58N 49°26' E 000°15'0 0.0
2017-Jun-17 03:28N 49°26' E 000°15'0 0.0
2017-Jun-17 02:58N 49°26' E 000°15'0 0.0
2017-Jun-17 02:28N 49°26' E 000°15'0 0.0
2017-Jun-17 01:58N 49°26' E 000°15'0 0.0
2017-Jun-17 01:28N 49°26' E 000°15'0 0.0
2017-Jun-17 00:58N 49°26' E 000°15'0 0.0
2017-Jun-17 00:28N 49°26' E 000°15'0 0.0
2017-Jun-16 23:58N 49°26' E 000°15'0 0.0
2017-Jun-16 23:28N 49°26' E 000°15'0 0.0
2017-Jun-16 22:58N 49°26' E 000°15'0 0.0
2017-Jun-16 22:28N 49°26' E 000°15'0 0.0
2017-Jun-16 21:55N 49°26' E 000°15'0 0.0
2017-Jun-16 21:28N 49°26' E 000°15'0 0.0
2017-Jun-16 20:58N 49°26' E 000°15'0 0.0
2017-Jun-16 20:28N 49°26' E 000°15'0 0.0
2017-Jun-16 19:58N 49°26' E 000°15'0 0.0
2017-Jun-16 19:28N 49°26' E 000°15'0 0.0
2017-Jun-16 18:58N 49°26' E 000°15'0 0.0
2017-Jun-16 18:28N 49°26' E 000°15'0 0.0
2017-Jun-16 17:58N 49°26' E 000°15'0 0.0
2017-Jun-16 17:28N 49°26' E 000°15'0 0.0
2017-Jun-16 16:58N 49°26' E 000°15'0 0.0
2017-Jun-16 16:28N 49°26' E 000°15'0 0.0
2017-Jun-16 15:58N 49°26' E 000°15'0 0.0
2017-Jun-16 15:28N 49°26' E 000°15'0 0.0
2017-Jun-16 14:58N 49°26' E 000°15'0 0.0
2017-Jun-16 14:28N 49°26' E 000°15'0 0.0
2017-Jun-16 13:28N 49°26' E 000°15'0 0.0
2017-Jun-16 12:58N 49°26' E 000°15'0 0.0
2017-Jun-16 12:28N 49°26' E 000°15'0 0.0
2017-Jun-16 11:58N 49°26' E 000°15'0 0.0
2017-Jun-16 11:30N 49°26' E 000°15'0 0.5
2017-Jun-16 11:00N 49°26' E 000°14'5 9.2
2017-Jun-16 10:31N 49°26' E 000°07'510.5
2017-Jun-16 10:01N 49°28' W 000°01'3 5.9
2017-Jun-16 09:31N 49°29' W 000°05'0 0.1
2017-Jun-16 08:58N 49°29' W 000°05'0 0.0
2017-Jun-16 08:28N 49°29' W 000°05'0 0.5
2017-Jun-16 08:01N 49°28' W 000°05'3 5.6
2017-Jun-16 07:30N 49°29' W 000°09'4 7.4
2017-Jun-16 07:00N 49°33' W 000°11'510.3
2017-Jun-16 06:30N 49°38' W 000°10'510.3
2017-Jun-16 06:00N 49°43' W 000°09'510.0
2017-Jun-16 05:30N 49°48' W 000°08'5 9.8
2017-Jun-16 05:00N 49°53' W 000°08'5 9.8
2017-Jun-16 04:30N 49°58' W 000°08'5 9.7
2017-Jun-16 04:00N 50°03' W 000°08'5 9.6
2017-Jun-16 03:30N 50°08' W 000°07'5 9.4
2017-Jun-16 03:01N 50°12' W 000°07'5 9.3
2017-Jun-16 02:30N 50°17' W 000°07'4 9.0
2017-Jun-16 02:00N 50°21' W 000°06'5 9.0
2017-Jun-16 01:30N 50°26' W 000°06'4 7.4
2017-Jun-16 00:59N 50°28' W 000°01'4 7.6
2017-Jun-16 00:30N 50°29' E 000°04'4 7.7
2017-Jun-15 23:59N 50°30' E 000°11'4 7.7
2017-Jun-15 23:30N 50°31' E 000°16'44 9.1
2017-Jun-15 18:38N 50°53' E 001°17'1 8.8
2017-Jun-15 18:30N 50°54' E 001°18'4 8.4
2017-Jun-15 18:00N 50°57' E 001°22'4 7.6
2017-Jun-15 17:28N 51°00' E 001°26'3 7.2
2017-Jun-15 17:00N 51°03' E 001°30'3 6.4
2017-Jun-15 16:30N 51°05' E 001°33'3 6.0
2017-Jun-15 16:00N 51°07' E 001°37'4 7.2
2017-Jun-15 15:30N 51°05' E 001°43'4 7.7
2017-Jun-15 15:00N 51°03' E 001°48'7 6.9
2017-Jun-15 13:57N 51°02' E 001°59'4 8.3
2017-Jun-15 13:30N 51°03' E 002°05'4 8.9
2017-Jun-15 13:00N 51°03' E 002°12'5 9.9
2017-Jun-15 12:30N 51°04' E 002°20'1 1.4
2017-Jun-15 11:59N 51°03' E 002°20'0 1.0
2017-Jun-15 11:30N 51°03' E 002°20'0 0.0
2017-Jun-15 11:00N 51°03' E 002°20'0 0.0
2017-Jun-15 10:30N 51°03' E 002°20'0 0.0
2017-Jun-15 10:00N 51°03' E 002°20'0 0.0
2017-Jun-15 09:30N 51°03' E 002°20'0 0.0
2017-Jun-15 09:00N 51°03' E 002°20'0 0.0
2017-Jun-15 08:30N 51°03' E 002°20'0 0.0
2017-Jun-15 08:00N 51°03' E 002°20'0 0.0
2017-Jun-15 07:30N 51°03' E 002°20'0 0.0
2017-Jun-15 07:00N 51°03' E 002°20'0 0.0
2017-Jun-15 06:30N 51°03' E 002°20'0 0.0
2017-Jun-15 06:00N 51°03' E 002°20'0 0.0
2017-Jun-15 05:30N 51°03' E 002°20'0 0.0
2017-Jun-15 05:00N 51°03' E 002°20'0 0.0
2017-Jun-15 04:30N 51°03' E 002°20'0 0.0
2017-Jun-15 04:00N 51°03' E 002°20'0 0.0
2017-Jun-15 03:30N 51°03' E 002°20'0 0.0
2017-Jun-15 02:57N 51°03' E 002°20'0 0.0
2017-Jun-15 02:30N 51°03' E 002°20'0 0.0
2017-Jun-15 02:00N 51°03' E 002°20'0 0.0
2017-Jun-15 01:30N 51°03' E 002°20'0 0.0
2017-Jun-15 01:00N 51°03' E 002°20'0 0.0
2017-Jun-15 00:30N 51°03' E 002°20'0 0.0
2017-Jun-15 00:00N 51°03' E 002°20'0 0.0
2017-Jun-14 23:30N 51°03' E 002°20'0 0.0
2017-Jun-14 23:00N 51°03' E 002°20'0 0.0
2017-Jun-14 22:30N 51°03' E 002°20'0 0.0
2017-Jun-14 22:00N 51°03' E 002°20'0 0.0
2017-Jun-14 21:30N 51°03' E 002°20'0 0.0
2017-Jun-14 21:00N 51°03' E 002°20'0 0.0
2017-Jun-14 20:30N 51°03' E 002°20'0 0.0
2017-Jun-14 20:00N 51°03' E 002°20'0 0.0
2017-Jun-14 19:30N 51°03' E 002°20'0 0.0
2017-Jun-14 19:00N 51°03' E 002°20'0 0.0
2017-Jun-14 18:30N 51°03' E 002°20'0 0.0
2017-Jun-14 17:57N 51°03' E 002°20'0 0.0
2017-Jun-14 17:30N 51°03' E 002°20'0 0.0
2017-Jun-14 17:00N 51°03' E 002°20'0 0.0
2017-Jun-14 16:30N 51°03' E 002°20'0 0.0
2017-Jun-14 16:00N 51°03' E 002°20'0 0.0
2017-Jun-14 15:30N 51°03' E 002°20'0 0.0
2017-Jun-14 15:00N 51°03' E 002°20'0 0.0
2017-Jun-14 14:00N 51°03' E 002°20'0 0.0
2017-Jun-14 13:30N 51°03' E 002°20'0 0.0
2017-Jun-14 13:00N 51°03' E 002°20'0 0.0
2017-Jun-14 12:30N 51°03' E 002°20'0 0.0
2017-Jun-14 12:00N 51°03' E 002°20'0 0.0
2017-Jun-14 11:30N 51°03' E 002°20'0 0.0
2017-Jun-14 11:00N 51°03' E 002°20'0 0.0
2017-Jun-14 10:30N 51°03' E 002°20'0 0.0
2017-Jun-14 10:00N 51°03' E 002°20'0 0.0
2017-Jun-14 09:30N 51°03' E 002°20'0 0.0
2017-Jun-14 09:00N 51°03' E 002°20'0 0.0
2017-Jun-14 08:30N 51°03' E 002°20'0 0.0
2017-Jun-14 08:00N 51°03' E 002°20'0 0.0
2017-Jun-14 07:30N 51°03' E 002°20'0 0.0
2017-Jun-14 07:00N 51°03' E 002°20'0 0.0
2017-Jun-14 06:30N 51°03' E 002°20'0 0.0
2017-Jun-14 06:00N 51°03' E 002°20'0 0.0
2017-Jun-14 05:30N 51°03' E 002°20'0 0.0
2017-Jun-14 05:00N 51°03' E 002°20'0 0.0
2017-Jun-14 04:30N 51°03' E 002°20'0 0.0
2017-Jun-14 04:00N 51°03' E 002°20'0 0.0
2017-Jun-14 03:30N 51°03' E 002°20'0 0.0
2017-Jun-14 03:00N 51°03' E 002°20'0 0.0
2017-Jun-14 02:30N 51°03' E 002°20'0 0.0
2017-Jun-14 02:00N 51°03' E 002°20'0 0.0
2017-Jun-14 01:30N 51°03' E 002°20'0 0.0
2017-Jun-14 01:00N 51°03' E 002°20'0 0.0
2017-Jun-14 00:30N 51°03' E 002°20'0 0.0
2017-Jun-14 00:00N 51°03' E 002°20'0 0.0
2017-Jun-13 23:30N 51°03' E 002°20'0 0.0
2017-Jun-13 23:00N 51°03' E 002°20'0 0.0
2017-Jun-13 22:30N 51°03' E 002°20'0 0.0
2017-Jun-13 22:00N 51°03' E 002°20'0 0.0
2017-Jun-13 21:27N 51°03' E 002°20'0 0.0
2017-Jun-13 21:00N 51°03' E 002°20'0 0.0
2017-Jun-13 20:30N 51°03' E 002°20'0 0.0
2017-Jun-13 20:00N 51°03' E 002°20'0 0.0
2017-Jun-13 19:30N 51°03' E 002°20'0 0.0
2017-Jun-13 19:00N 51°03' E 002°20'1 1.1
2017-Jun-13 18:31N 51°03' E 002°21'1 1.3
2017-Jun-13 18:01N 51°04' E 002°21'510.3
2017-Jun-13 17:30N 51°03' E 002°13'611.7
2017-Jun-13 17:00N 51°03' E 002°03'612.1
2017-Jun-13 16:30N 51°03' E 001°54'2 4.6
2017-Jun-13 15:59N 51°04' E 001°51'0 0.0
2017-Jun-13 15:26N 51°04' E 001°51'0 0.0
2017-Jun-13 14:59N 51°04' E 001°51'0 0.0
2017-Jun-13 14:29N 51°04' E 001°51'0 0.0
2017-Jun-13 13:29N 51°04' E 001°51'0 0.0
2017-Jun-13 12:59N 51°04' E 001°51'0 0.0
2017-Jun-13 12:29N 51°04' E 001°51'0 0.2
2017-Jun-13 11:59N 51°04' E 001°51'0 0.2
2017-Jun-13 11:30N 51°04' E 001°51'0 0.5
2017-Jun-13 11:00N 51°04' E 001°51'4 7.6
2017-Jun-13 10:30N 51°02' E 001°45'4 8.4
2017-Jun-13 10:00N 51°00' E 001°39'4 8.5
2017-Jun-13 09:30N 50°57' E 001°34'4 8.4
2017-Jun-13 09:00N 50°55' E 001°30'4 8.3
2017-Jun-13 08:30N 50°51' E 001°27'  
Track history (hours):
 
Tides and Currents Weather Stations Pressure Air Temp Water Temp Dewpoint Dewpoint Depression Visibility Wind Speed Wind Dir Waves Ship Positions

Betancuria

Last reported at 2017-Jun-23 03:30 UTC. Time now 2017-Jun-23 03:32 UTC.
Position N 51°22' E 002°30'.

Length 141 m; draft 4.7 m.

Type: Ship. MMSI: 224471000.

Date/timePositionNaut miles runAvg speedWind from/ knotsBaromVisibWave heightAir tempDewpointWater temp
2017-Jun-23 03:30N 51°22' E 002°30'3 6.4
2017-Jun-23 03:01N 51°21' E 002°25'3 6.5
2017-Jun-23 02:30N 51°19' E 002°21'4 7.6
2017-Jun-23 02:01N 51°17' E 002°16'4 8.1
2017-Jun-23 01:31N 51°14' E 002°10'4 8.1
2017-Jun-23 01:00N 51°12' E 002°05'4 8.5
2017-Jun-23 00:30N 51°11' E 001°59'4 8.8
2017-Jun-23 00:01N 51°09' E 001°52'5 9.1
2017-Jun-22 23:31N 51°06' E 001°46'5 9.7
2017-Jun-22 23:01N 51°02' E 001°41'5 9.9
2017-Jun-22 22:30N 50°59' E 001°36'510.1
2017-Jun-22 22:01N 50°55' E 001°30'510.6
2017-Jun-22 21:30N 50°50' E 001°27'5 9.9
2017-Jun-22 20:58N 50°45' E 001°24'55 9.5
2017-Jun-22 15:12N 50°19' E 000°08'2 9.4
2017-Jun-22 14:56N 50°19' E 000°05'8 8.9
2017-Jun-22 14:00N 50°11' W 000°00'5 9.5
2017-Jun-22 13:30N 50°06' W 000°02'5 9.4
2017-Jun-22 13:01N 50°02' W 000°04'5 9.6
2017-Jun-22 12:30N 49°57' W 000°05'5 9.7
2017-Jun-22 12:01N 49°52' W 000°07'5 9.6
2017-Jun-22 11:30N 49°48' W 000°09'510.1
2017-Jun-22 11:01N 49°43' W 000°10'510.4
2017-Jun-22 10:31N 49°37' W 000°11'510.4
2017-Jun-22 10:00N 49°32' W 000°12'4 8.7
2017-Jun-22 09:31N 49°29' W 000°07'0 0.5
2017-Jun-22 08:58N 49°29' W 000°07'0 0.0
2017-Jun-22 08:28N 49°29' W 000°07'0 0.0
2017-Jun-22 07:58N 49°29' W 000°07'0 0.0
2017-Jun-22 07:28N 49°29' W 000°07'0 0.0
2017-Jun-22 06:58N 49°29' W 000°07'0 0.0
2017-Jun-22 06:28N 49°29' W 000°07'0 0.0
2017-Jun-22 05:58N 49°29' W 000°07'0 0.1
2017-Jun-22 05:28N 49°29' W 000°07'0 0.0
2017-Jun-22 04:58N 49°29' W 000°07'0 0.1
2017-Jun-22 04:28N 49°29' W 000°07'0 0.1
2017-Jun-22 03:58N 49°29' W 000°07'0 0.1
2017-Jun-22 03:28N 49°29' W 000°07'0 0.0
2017-Jun-22 02:58N 49°29' W 000°07'0 0.1
2017-Jun-22 02:28N 49°29' W 000°07'0 0.0
2017-Jun-22 01:58N 49°29' W 000°07'0 0.0
2017-Jun-22 01:28N 49°29' W 000°07'0 0.0
2017-Jun-22 00:58N 49°29' W 000°07'0 0.0
2017-Jun-22 00:28N 49°29' W 000°07'0 0.0
2017-Jun-21 23:58N 49°29' W 000°07'0 0.0
2017-Jun-21 23:28N 49°29' W 000°07'0 0.0
2017-Jun-21 22:58N 49°29' W 000°07'0 0.0
2017-Jun-21 22:28N 49°29' W 000°07'0 0.1
2017-Jun-21 21:58N 49°29' W 000°07'0 0.1
2017-Jun-21 21:28N 49°29' W 000°07'0 0.0
2017-Jun-21 20:58N 49°29' W 000°07'0 0.1
2017-Jun-21 20:28N 49°29' W 000°07'0 0.0
2017-Jun-21 19:58N 49°29' W 000°07'0 0.0
2017-Jun-21 19:28N 49°29' W 000°07'0 0.1
2017-Jun-21 18:58N 49°29' W 000°07'0 0.0
2017-Jun-21 18:28N 49°29' W 000°07'0 0.0
2017-Jun-21 17:58N 49°29' W 000°07'0 0.0
2017-Jun-21 17:28N 49°29' W 000°07'0 0.0
2017-Jun-21 16:58N 49°29' W 000°07'0 0.1
2017-Jun-21 16:28N 49°29' W 000°07'0 0.1
2017-Jun-21 15:58N 49°29' W 000°07'0 0.1
2017-Jun-21 15:28N 49°29' W 000°07'0 0.1
2017-Jun-21 14:58N 49°29' W 000°07'0 0.0
2017-Jun-21 14:28N 49°29' W 000°07'0 0.0
2017-Jun-21 13:28N 49°29' W 000°07'0 0.0
2017-Jun-21 12:58N 49°29' W 000°07'0 0.0
2017-Jun-21 12:28N 49°29' W 000°07'0 0.0
2017-Jun-21 11:58N 49°29' W 000°07'0 0.0
2017-Jun-21 11:28N 49°29' W 000°07'0 0.0
2017-Jun-21 10:58N 49°29' W 000°07'0 0.0
2017-Jun-21 10:28N 49°29' W 000°07'0 0.0
2017-Jun-21 09:58N 49°29' W 000°07'0 0.0
2017-Jun-21 09:28N 49°29' W 000°07'0 0.1
2017-Jun-21 08:58N 49°29' W 000°07'0 0.1
2017-Jun-21 08:22N 49°29' W 000°07'0 0.1
2017-Jun-21 07:58N 49°29' W 000°07'0 0.0
2017-Jun-21 07:28N 49°29' W 000°07'0 0.0
2017-Jun-21 06:55N 49°29' W 000°07'0 0.0
2017-Jun-21 06:28N 49°29' W 000°07'0 0.0
2017-Jun-21 05:58N 49°29' W 000°07'0 0.0
2017-Jun-21 05:28N 49°29' W 000°07'0 0.0
2017-Jun-21 04:58N 49°29' W 000°07'0 0.0
2017-Jun-21 04:28N 49°29' W 000°07'0 0.1
2017-Jun-21 03:58N 49°29' W 000°07'0 0.2
2017-Jun-21 03:28N 49°29' W 000°07'0 0.1
2017-Jun-21 02:58N 49°29' W 000°07'0 0.0
2017-Jun-21 02:28N 49°29' W 000°07'0 0.1
2017-Jun-21 01:58N 49°29' W 000°07'0 0.0
2017-Jun-21 01:28N 49°29' W 000°07'0 0.0
2017-Jun-21 00:58N 49°29' W 000°07'0 0.0
2017-Jun-21 00:28N 49°29' W 000°07'0 0.0
2017-Jun-20 23:58N 49°29' W 000°07'0 0.0
2017-Jun-20 23:28N 49°29' W 000°07'0 0.0
2017-Jun-20 22:58N 49°29' W 000°07'0 0.0
2017-Jun-20 22:28N 49°29' W 000°07'0 0.0
2017-Jun-20 21:58N 49°29' W 000°07'0 0.0
2017-Jun-20 21:28N 49°29' W 000°07'0 0.0
2017-Jun-20 20:58N 49°29' W 000°07'0 0.0
2017-Jun-20 20:28N 49°29' W 000°07'0 0.0
2017-Jun-20 19:58N 49°29' W 000°07'0 0.0
2017-Jun-20 19:28N 49°29' W 000°07'0 0.0
2017-Jun-20 18:58N 49°29' W 000°07'0 0.1
2017-Jun-20 18:28N 49°29' W 000°07'0 0.1
2017-Jun-20 17:58N 49°29' W 000°07'0 0.1
2017-Jun-20 17:28N 49°29' W 000°07'0 0.0
2017-Jun-20 16:58N 49°29' W 000°07'0 0.0
2017-Jun-20 16:28N 49°29' W 000°07'0 0.2
2017-Jun-20 15:58N 49°29' W 000°07'0 0.0
2017-Jun-20 15:25N 49°29' W 000°07'0 0.0
2017-Jun-20 14:58N 49°29' W 000°07'0 0.0
2017-Jun-20 13:58N 49°29' W 000°07'0 0.0
2017-Jun-20 13:28N 49°29' W 000°07'0 0.0
2017-Jun-20 12:58N 49°29' W 000°07'0 0.0
2017-Jun-20 12:28N 49°29' W 000°07'0 0.0
2017-Jun-20 11:58N 49°29' W 000°07'0 0.0
2017-Jun-20 11:28N 49°29' W 000°07'0 0.0
2017-Jun-20 10:58N 49°29' W 000°07'0 0.0
2017-Jun-20 10:28N 49°29' W 000°07'0 0.0
2017-Jun-20 09:58N 49°29' W 000°07'0 0.0
2017-Jun-20 09:28N 49°29' W 000°07'0 0.0
2017-Jun-20 08:58N 49°29' W 000°07'0 0.0
2017-Jun-20 08:28N 49°29' W 000°07'0 0.0
2017-Jun-20 07:58N 49°29' W 000°07'0 0.1
2017-Jun-20 07:28N 49°29' W 000°07'0 0.1
2017-Jun-20 06:58N 49°29' W 000°07'0 0.1
2017-Jun-20 06:28N 49°29' W 000°07'0 0.0
2017-Jun-20 05:58N 49°29' W 000°07'0 0.0
2017-Jun-20 05:28N 49°29' W 000°07'0 0.0
2017-Jun-20 04:58N 49°29' W 000°07'0 0.0
2017-Jun-20 04:28N 49°29' W 000°07'0 0.0
2017-Jun-20 03:58N 49°29' W 000°07'0 0.0
2017-Jun-20 03:28N 49°29' W 000°07'0 0.0
2017-Jun-20 02:58N 49°29' W 000°07'0 0.0
2017-Jun-20 02:28N 49°29' W 000°07'0 0.2
2017-Jun-20 01:58N 49°29' W 000°07'0 0.2
2017-Jun-20 01:28N 49°29' W 000°07'0 0.0
2017-Jun-20 00:58N 49°29' W 000°07'0 0.0
2017-Jun-20 00:28N 49°29' W 000°07'0 0.0
2017-Jun-19 23:58N 49°29' W 000°07'0 0.0
2017-Jun-19 23:28N 49°29' W 000°07'0 0.0
2017-Jun-19 22:58N 49°29' W 000°07'0 0.0
2017-Jun-19 22:28N 49°29' W 000°07'0 0.0
2017-Jun-19 21:58N 49°29' W 000°07'0 0.0
2017-Jun-19 21:28N 49°29' W 000°07'0 0.0
2017-Jun-19 20:58N 49°29' W 000°07'0 0.0
2017-Jun-19 20:28N 49°29' W 000°07'0 0.0
2017-Jun-19 19:58N 49°29' W 000°07'0 0.0
2017-Jun-19 19:28N 49°29' W 000°07'0 0.0
2017-Jun-19 18:58N 49°29' W 000°07'0 0.1
2017-Jun-19 18:28N 49°29' W 000°07'0 0.0
2017-Jun-19 17:58N 49°29' W 000°07'0 0.0
2017-Jun-19 17:28N 49°29' W 000°07'0 0.0
2017-Jun-19 16:58N 49°29' W 000°07'0 0.0
2017-Jun-19 16:28N 49°29' W 000°07'0 0.1
2017-Jun-19 15:58N 49°29' W 000°07'0 0.1
2017-Jun-19 15:28N 49°29' W 000°07'0 0.1
2017-Jun-19 14:58N 49°29' W 000°07'0 0.1
2017-Jun-19 13:58N 49°29' W 000°07'0 0.0
2017-Jun-19 13:28N 49°29' W 000°07'0 0.0
2017-Jun-19 12:58N 49°29' W 000°07'0 0.0
2017-Jun-19 12:28N 49°29' W 000°07'0 0.0
2017-Jun-19 11:58N 49°29' W 000°07'0 0.0
2017-Jun-19 11:28N 49°29' W 000°07'0 0.0
2017-Jun-19 10:58N 49°29' W 000°07'0 0.0
2017-Jun-19 10:28N 49°29' W 000°07'0 0.0
2017-Jun-19 09:58N 49°29' W 000°07'0 0.0
2017-Jun-19 09:28N 49°29' W 000°07'0 0.0
2017-Jun-19 08:58N 49°29' W 000°07'0 0.0
2017-Jun-19 08:28N 49°29' W 000°07'0 0.0
2017-Jun-19 07:58N 49°29' W 000°07'0 0.0
2017-Jun-19 07:28N 49°29' W 000°07'0 0.1
2017-Jun-19 06:58N 49°29' W 000°07'0 0.1
2017-Jun-19 06:28N 49°29' W 000°07'0 0.1
2017-Jun-19 05:58N 49°29' W 000°07'0 0.0
2017-Jun-19 05:28N 49°29' W 000°07'0 0.0
2017-Jun-19 04:58N 49°29' W 000°07'0 0.0
2017-Jun-19 04:28N 49°29' W 000°07'0 0.0
2017-Jun-19 03:58N 49°29' W 000°07'0 0.0
2017-Jun-19 03:28N 49°29' W 000°07'0 0.0
2017-Jun-19 02:58N 49°29' W 000°07'0 0.0
2017-Jun-19 02:28N 49°29' W 000°07'0 0.0
2017-Jun-19 01:58N 49°29' W 000°07'0 0.0
2017-Jun-19 01:28N 49°29' W 000°07'0 0.2
2017-Jun-19 00:58N 49°29' W 000°07'0 0.1
2017-Jun-19 00:28N 49°29' W 000°07'0 0.0
2017-Jun-18 23:58N 49°29' W 000°07'0 0.0
2017-Jun-18 23:28N 49°29' W 000°07'0 0.0
2017-Jun-18 22:58N 49°29' W 000°07'0 0.0
2017-Jun-18 22:28N 49°29' W 000°07'0 0.0
2017-Jun-18 21:58N 49°29' W 000°07'0 0.0
2017-Jun-18 21:28N 49°29' W 000°07'0 0.0
2017-Jun-18 20:58N 49°29' W 000°07'0 0.0
2017-Jun-18 20:28N 49°29' W 000°07'0 0.0
2017-Jun-18 19:58N 49°29' W 000°07'0 0.1
2017-Jun-18 19:28N 49°29' W 000°07'0 0.0
2017-Jun-18 18:58N 49°29' W 000°07'0 0.0
2017-Jun-18 18:28N 49°29' W 000°07'0 0.0
2017-Jun-18 17:58N 49°29' W 000°07'0 0.0
2017-Jun-18 17:28N 49°29' W 000°07'0 0.0
2017-Jun-18 16:58N 49°29' W 000°07'0 0.0
2017-Jun-18 16:28N 49°29' W 000°07'0 0.0
2017-Jun-18 15:58N 49°29' W 000°07'0 0.0
2017-Jun-18 15:28N 49°29' W 000°07'0 0.0
2017-Jun-18 14:58N 49°29' W 000°07'0 0.0
2017-Jun-18 13:58N 49°29' W 000°07'0 0.0
2017-Jun-18 13:28N 49°29' W 000°07'0 0.0
2017-Jun-18 12:58N 49°29' W 000°07'0 0.0
2017-Jun-18 12:28N 49°29' W 000°07'0 0.0
2017-Jun-18 11:58N 49°29' W 000°07'0 0.0
2017-Jun-18 11:28N 49°29' W 000°07'0 0.0
2017-Jun-18 10:58N 49°29' W 000°07'0 0.0
2017-Jun-18 10:28N 49°29' W 000°07'0 0.0
2017-Jun-18 09:58N 49°29' W 000°07'0 0.0
2017-Jun-18 09:25N 49°29' W 000°07'0 0.0
2017-Jun-18 08:58N 49°29' W 000°07'0 0.0
2017-Jun-18 08:28N 49°29' W 000°07'0 0.0
2017-Jun-18 07:59N 49°29' W 000°07'0 0.0
2017-Jun-18 07:29N 49°29' W 000°07'0 0.0
2017-Jun-18 06:59N 49°29' W 000°07'0 0.0
2017-Jun-18 06:29N 49°29' W 000°07'0 0.1
2017-Jun-18 05:59N 49°29' W 000°07'0 0.2
2017-Jun-18 05:29N 49°29' W 000°07'0 0.0
2017-Jun-18 04:59N 49°29' W 000°07'0 0.0
2017-Jun-18 04:29N 49°29' W 000°07'0 0.0
2017-Jun-18 03:59N 49°29' W 000°07'0 0.0
2017-Jun-18 03:29N 49°29' W 000°07'0 0.0
2017-Jun-18 02:59N 49°29' W 000°07'0 0.0
2017-Jun-18 02:29N 49°29' W 000°07'0 0.0
2017-Jun-18 01:59N 49°29' W 000°07'0 0.0
2017-Jun-18 01:29N 49°29' W 000°07'0 0.1
2017-Jun-18 00:59N 49°29' W 000°07'0 0.2
2017-Jun-18 00:29N 49°29' W 000°07'0 0.0
2017-Jun-17 23:59N 49°29' W 000°07'0 0.0
2017-Jun-17 23:29N 49°29' W 000°07'0 0.0
2017-Jun-17 22:59N 49°29' W 000°07'0 0.0
2017-Jun-17 22:29N 49°29' W 000°07'0 0.0
2017-Jun-17 21:59N 49°29' W 000°07'0 0.0
2017-Jun-17 21:29N 49°29' W 000°07'0 0.0
2017-Jun-17 20:59N 49°29' W 000°07'0 0.0
2017-Jun-17 20:29N 49°29' W 000°07'0 0.0
2017-Jun-17 19:59N 49°29' W 000°07'0 0.0
2017-Jun-17 19:29N 49°29' W 000°07'0 0.0
2017-Jun-17 18:59N 49°29' W 000°07'0 0.0
2017-Jun-17 18:29N 49°29' W 000°07'0 0.0
2017-Jun-17 17:59N 49°29' W 000°07'0 0.0
2017-Jun-17 17:29N 49°29' W 000°07'0 0.1
2017-Jun-17 16:59N 49°29' W 000°07'0 0.1
2017-Jun-17 16:29N 49°29' W 000°07'0 0.0
2017-Jun-17 15:59N 49°29' W 000°07'0 0.1
2017-Jun-17 15:29N 49°29' W 000°07'0 0.0
2017-Jun-17 14:59N 49°29' W 000°07'0 0.5
2017-Jun-17 14:30N 49°29' W 000°06'9 9.5
2017-Jun-17 13:30N 49°26' E 000°07'4 8.6
2017-Jun-17 13:00N 49°26' E 000°14'0 0.7
2017-Jun-17 12:30N 49°26' E 000°15'0 0.0
2017-Jun-17 12:01N 49°26' E 000°15'0 0.0
2017-Jun-17 11:30N 49°26' E 000°15'0 0.0
2017-Jun-17 10:58N 49°26' E 000°15'0 0.0
2017-Jun-17 10:28N 49°26' E 000°15'0 0.0
2017-Jun-17 09:59N 49°26' E 000°15'0 0.0
2017-Jun-17 09:28N 49°26' E 000°15'0 0.0
2017-Jun-17 08:58N 49°26' E 000°15'0 0.0
2017-Jun-17 08:28N 49°26' E 000°15'0 0.0
2017-Jun-17 07:58N 49°26' E 000°15'0 0.0
2017-Jun-17 07:28N 49°26' E 000°15'0 0.0
2017-Jun-17 06:58N 49°26' E 000°15'0 0.0
2017-Jun-17 06:28N 49°26' E 000°15'0 0.0
2017-Jun-17 05:58N 49°26' E 000°15'0 0.0
2017-Jun-17 05:28N 49°26' E 000°15'0 0.0
2017-Jun-17 04:58N 49°26' E 000°15'0 0.0
2017-Jun-17 04:28N 49°26' E 000°15'0 0.0
2017-Jun-17 03:58N 49°26' E 000°15'0 0.0
2017-Jun-17 03:28N 49°26' E 000°15'0 0.0
2017-Jun-17 02:58N 49°26' E 000°15'0 0.0
2017-Jun-17 02:28N 49°26' E 000°15'0 0.0
2017-Jun-17 01:58N 49°26' E 000°15'0 0.0
2017-Jun-17 01:28N 49°26' E 000°15'0 0.0
2017-Jun-17 00:58N 49°26' E 000°15'0 0.0
2017-Jun-17 00:28N 49°26' E 000°15'0 0.0
2017-Jun-16 23:58N 49°26' E 000°15'0 0.0
2017-Jun-16 23:28N 49°26' E 000°15'0 0.0
2017-Jun-16 22:58N 49°26' E 000°15'0 0.0
2017-Jun-16 22:28N 49°26' E 000°15'0 0.0
2017-Jun-16 21:55N 49°26' E 000°15'0 0.0
2017-Jun-16 21:28N 49°26' E 000°15'0 0.0
2017-Jun-16 20:58N 49°26' E 000°15'0 0.0
2017-Jun-16 20:28N 49°26' E 000°15'0 0.0
2017-Jun-16 19:58N 49°26' E 000°15'0 0.0
2017-Jun-16 19:28N 49°26' E 000°15'0 0.0
2017-Jun-16 18:58N 49°26' E 000°15'0 0.0
2017-Jun-16 18:28N 49°26' E 000°15'0 0.0
2017-Jun-16 17:58N 49°26' E 000°15'0 0.0
2017-Jun-16 17:28N 49°26' E 000°15'0 0.0
2017-Jun-16 16:58N 49°26' E 000°15'0 0.0
2017-Jun-16 16:28N 49°26' E 000°15'0 0.0
2017-Jun-16 15:58N 49°26' E 000°15'0 0.0
2017-Jun-16 15:28N 49°26' E 000°15'0 0.0
2017-Jun-16 14:58N 49°26' E 000°15'0 0.0
2017-Jun-16 14:28N 49°26' E 000°15'0 0.0
2017-Jun-16 13:28N 49°26' E 000°15'0 0.0
2017-Jun-16 12:58N 49°26' E 000°15'0 0.0
2017-Jun-16 12:28N 49°26' E 000°15'0 0.0
2017-Jun-16 11:58N 49°26' E 000°15'0 0.0
2017-Jun-16 11:30N 49°26' E 000°15'0 0.5
2017-Jun-16 11:00N 49°26' E 000°14'5 9.2
2017-Jun-16 10:31N 49°26' E 000°07'510.5
2017-Jun-16 10:01N 49°28' W 000°01'3 5.9
2017-Jun-16 09:31N 49°29' W 000°05'0 0.1
2017-Jun-16 08:58N 49°29' W 000°05'0 0.0
2017-Jun-16 08:28N 49°29' W 000°05'0 0.5
2017-Jun-16 08:01N 49°28' W 000°05'3 5.6
2017-Jun-16 07:30N 49°29' W 000°09'4 7.4
2017-Jun-16 07:00N 49°33' W 000°11'510.3
2017-Jun-16 06:30N 49°38' W 000°10'510.3
2017-Jun-16 06:00N 49°43' W 000°09'510.0
2017-Jun-16 05:30N 49°48' W 000°08'5 9.8
2017-Jun-16 05:00N 49°53' W 000°08'5 9.8
2017-Jun-16 04:30N 49°58' W 000°08'5 9.7
2017-Jun-16 04:00N 50°03' W 000°08'5 9.6
2017-Jun-16 03:30N 50°08' W 000°07'5 9.4
2017-Jun-16 03:01N 50°12' W 000°07'5 9.3
2017-Jun-16 02:30N 50°17' W 000°07'4 9.0
2017-Jun-16 02:00N 50°21' W 000°06'5 9.0
2017-Jun-16 01:30N 50°26' W 000°06'4 7.4
2017-Jun-16 00:59N 50°28' W 000°01'4 7.6
2017-Jun-16 00:30N 50°29' E 000°04'4 7.7
2017-Jun-15 23:59N 50°30' E 000°11'4 7.7
2017-Jun-15 23:30N 50°31' E 000°16'44 9.1
2017-Jun-15 18:38N 50°53' E 001°17'1 8.8
2017-Jun-15 18:30N 50°54' E 001°18'4 8.4
2017-Jun-15 18:00N 50°57' E 001°22'4 7.6
2017-Jun-15 17:28N 51°00' E 001°26'3 7.2
2017-Jun-15 17:00N 51°03' E 001°30'3 6.4
2017-Jun-15 16:30N 51°05' E 001°33'3 6.0
2017-Jun-15 16:00N 51°07' E 001°37'4 7.2
2017-Jun-15 15:30N 51°05' E 001°43'4 7.7
2017-Jun-15 15:00N 51°03' E 001°48'7 6.9
2017-Jun-15 13:57N 51°02' E 001°59'4 8.3
2017-Jun-15 13:30N 51°03' E 002°05'4 8.9
2017-Jun-15 13:00N 51°03' E 002°12'5 9.9
2017-Jun-15 12:30N 51°04' E 002°20'1 1.4
2017-Jun-15 11:59N 51°03' E 002°20'0 1.0
2017-Jun-15 11:30N 51°03' E 002°20'0 0.0
2017-Jun-15 11:00N 51°03' E 002°20'0 0.0
2017-Jun-15 10:30N 51°03' E 002°20'0 0.0
2017-Jun-15 10:00N 51°03' E 002°20'0 0.0
2017-Jun-15 09:30N 51°03' E 002°20'0 0.0
2017-Jun-15 09:00N 51°03' E 002°20'0 0.0
2017-Jun-15 08:30N 51°03' E 002°20'0 0.0
2017-Jun-15 08:00N 51°03' E 002°20'0 0.0
2017-Jun-15 07:30N 51°03' E 002°20'0 0.0
2017-Jun-15 07:00N 51°03' E 002°20'0 0.0
2017-Jun-15 06:30N 51°03' E 002°20'0 0.0
2017-Jun-15 06:00N 51°03' E 002°20'0 0.0
2017-Jun-15 05:30N 51°03' E 002°20'0 0.0
2017-Jun-15 05:00N 51°03' E 002°20'0 0.0
2017-Jun-15 04:30N 51°03' E 002°20'0 0.0
2017-Jun-15 04:00N 51°03' E 002°20'0 0.0
2017-Jun-15 03:30N 51°03' E 002°20'0 0.0
2017-Jun-15 02:57N 51°03' E 002°20'0 0.0
2017-Jun-15 02:30N 51°03' E 002°20'0 0.0
2017-Jun-15 02:00N 51°03' E 002°20'0 0.0
2017-Jun-15 01:30N 51°03' E 002°20'0 0.0
2017-Jun-15 01:00N 51°03' E 002°20'0 0.0
2017-Jun-15 00:30N 51°03' E 002°20'0 0.0
2017-Jun-15 00:00N 51°03' E 002°20'0 0.0
2017-Jun-14 23:30N 51°03' E 002°20'0 0.0
2017-Jun-14 23:00N 51°03' E 002°20'0 0.0
2017-Jun-14 22:30N 51°03' E 002°20'0 0.0
2017-Jun-14 22:00N 51°03' E 002°20'0 0.0
2017-Jun-14 21:30N 51°03' E 002°20'0 0.0
2017-Jun-14 21:00N 51°03' E 002°20'0 0.0
2017-Jun-14 20:30N 51°03' E 002°20'0 0.0
2017-Jun-14 20:00N 51°03' E 002°20'0 0.0
2017-Jun-14 19:30N 51°03' E 002°20'0 0.0
2017-Jun-14 19:00N 51°03' E 002°20'0 0.0
2017-Jun-14 18:30N 51°03' E 002°20'0 0.0
2017-Jun-14 17:57N 51°03' E 002°20'0 0.0
2017-Jun-14 17:30N 51°03' E 002°20'0 0.0
2017-Jun-14 17:00N 51°03' E 002°20'0 0.0
2017-Jun-14 16:30N 51°03' E 002°20'0 0.0
2017-Jun-14 16:00N 51°03' E 002°20'0 0.0
2017-Jun-14 15:30N 51°03' E 002°20'0 0.0
2017-Jun-14 15:00N 51°03' E 002°20'0 0.0
2017-Jun-14 14:00N 51°03' E 002°20'0 0.0
2017-Jun-14 13:30N 51°03' E 002°20'0 0.0
2017-Jun-14 13:00N 51°03' E 002°20'0 0.0
2017-Jun-14 12:30N 51°03' E 002°20'0 0.0
2017-Jun-14 12:00N 51°03' E 002°20'0 0.0
2017-Jun-14 11:30N 51°03' E 002°20'0 0.0
2017-Jun-14 11:00N 51°03' E 002°20'0 0.0
2017-Jun-14 10:30N 51°03' E 002°20'0 0.0
2017-Jun-14 10:00N 51°03' E 002°20'0 0.0
2017-Jun-14 09:30N 51°03' E 002°20'0 0.0
2017-Jun-14 09:00N 51°03' E 002°20'0 0.0
2017-Jun-14 08:30N 51°03' E 002°20'0 0.0
2017-Jun-14 08:00N 51°03' E 002°20'0 0.0
2017-Jun-14 07:30N 51°03' E 002°20'0 0.0
2017-Jun-14 07:00N 51°03' E 002°20'0 0.0
2017-Jun-14 06:30N 51°03' E 002°20'0 0.0
2017-Jun-14 06:00N 51°03' E 002°20'0 0.0
2017-Jun-14 05:30N 51°03' E 002°20'0 0.0
2017-Jun-14 05:00N 51°03' E 002°20'0 0.0
2017-Jun-14 04:30N 51°03' E 002°20'0 0.0
2017-Jun-14 04:00N 51°03' E 002°20'0 0.0
2017-Jun-14 03:30N 51°03' E 002°20'0 0.0
2017-Jun-14 03:00N 51°03' E 002°20'0 0.0
2017-Jun-14 02:30N 51°03' E 002°20'0 0.0
2017-Jun-14 02:00N 51°03' E 002°20'0 0.0
2017-Jun-14 01:30N 51°03' E 002°20'0 0.0
2017-Jun-14 01:00N 51°03' E 002°20'0 0.0
2017-Jun-14 00:30N 51°03' E 002°20'0 0.0
2017-Jun-14 00:00N 51°03' E 002°20'0 0.0
2017-Jun-13 23:30N 51°03' E 002°20'0 0.0
2017-Jun-13 23:00N 51°03' E 002°20'0 0.0
2017-Jun-13 22:30N 51°03' E 002°20'0 0.0
2017-Jun-13 22:00N 51°03' E 002°20'0 0.0
2017-Jun-13 21:27N 51°03' E 002°20'0 0.0
2017-Jun-13 21:00N 51°03' E 002°20'0 0.0
2017-Jun-13 20:30N 51°03' E 002°20'0 0.0
2017-Jun-13 20:00N 51°03' E 002°20'0 0.0
2017-Jun-13 19:30N 51°03' E 002°20'0 0.0
2017-Jun-13 19:00N 51°03' E 002°20'1 1.1
2017-Jun-13 18:31N 51°03' E 002°21'1 1.3
2017-Jun-13 18:01N 51°04' E 002°21'510.3
2017-Jun-13 17:30N 51°03' E 002°13'611.7
2017-Jun-13 17:00N 51°03' E 002°03'612.1
2017-Jun-13 16:30N 51°03' E 001°54'2 4.6
2017-Jun-13 15:59N 51°04' E 001°51'0 0.0
2017-Jun-13 15:26N 51°04' E 001°51'0 0.0
2017-Jun-13 14:59N 51°04' E 001°51'0 0.0
2017-Jun-13 14:29N 51°04' E 001°51'0 0.0
2017-Jun-13 13:29N 51°04' E 001°51'0 0.0
2017-Jun-13 12:59N 51°04' E 001°51'0 0.0
2017-Jun-13 12:29N 51°04' E 001°51'0 0.2
2017-Jun-13 11:59N 51°04' E 001°51'0 0.2
2017-Jun-13 11:30N 51°04' E 001°51'0 0.5
2017-Jun-13 11:00N 51°04' E 001°51'4 7.6
2017-Jun-13 10:30N 51°02' E 001°45'4 8.4
2017-Jun-13 10:00N 51°00' E 001°39'4 8.5
2017-Jun-13 09:30N 50°57' E 001°34'4 8.4
2017-Jun-13 09:00N 50°55' E 001°30'4 8.3
2017-Jun-13 08:30N 50°51' E 001°27'  

Dump ship's entire track history